sensor_id;sensor_type;location;lat;lon;timestamp;temperature;humidity
63802;DHT22;49949;43.060;25.624;2023-08-06T00:00:24;25.50;96.90
63802;DHT22;49949;43.060;25.624;2023-08-06T00:02:50;25.50;96.90
63802;DHT22;49949;43.060;25.624;2023-08-06T00:05:16;25.50;96.90
63802;DHT22;49949;43.060;25.624;2023-08-06T00:07:49;25.50;97.00
63802;DHT22;49949;43.060;25.624;2023-08-06T00:10:16;25.50;97.40
63802;DHT22;49949;43.060;25.624;2023-08-06T00:12:42;25.50;97.30
63802;DHT22;49949;43.060;25.624;2023-08-06T00:15:08;25.50;97.60
63802;DHT22;49949;43.060;25.624;2023-08-06T00:17:34;25.50;97.90
63802;DHT22;49949;43.060;25.624;2023-08-06T00:20:01;25.50;98.00
63802;DHT22;49949;43.060;25.624;2023-08-06T00:22:34;25.40;98.40
63802;DHT22;49949;43.060;25.624;2023-08-06T00:25:00;25.40;98.60
63802;DHT22;49949;43.060;25.624;2023-08-06T00:27:26;25.50;98.80
63802;DHT22;49949;43.060;25.624;2023-08-06T00:29:52;25.50;98.50
63802;DHT22;49949;43.060;25.624;2023-08-06T00:32:18;25.40;97.00
63802;DHT22;49949;43.060;25.624;2023-08-06T00:34:43;25.30;96.40
63802;DHT22;49949;43.060;25.624;2023-08-06T00:37:09;25.30;95.00
63802;DHT22;49949;43.060;25.624;2023-08-06T00:39:35;25.10;94.90
63802;DHT22;49949;43.060;25.624;2023-08-06T00:42:00;25.10;95.40
63802;DHT22;49949;43.060;25.624;2023-08-06T00:44:26;25.00;94.30
63802;DHT22;49949;43.060;25.624;2023-08-06T00:46:52;24.90;94.80
63802;DHT22;49949;43.060;25.624;2023-08-06T00:49:18;24.80;95.10
63802;DHT22;49949;43.060;25.624;2023-08-06T00:51:44;24.70;94.60
63802;DHT22;49949;43.060;25.624;2023-08-06T00:54:10;24.60;94.80
63802;DHT22;49949;43.060;25.624;2023-08-06T00:56:37;24.50;95.60
63802;DHT22;49949;43.060;25.624;2023-08-06T00:59:06;24.30;96.00
63802;DHT22;49949;43.060;25.624;2023-08-06T01:01:31;24.10;96.30
63802;DHT22;49949;43.060;25.624;2023-08-06T01:03:57;24.00;96.50
63802;DHT22;49949;43.060;25.624;2023-08-06T01:06:43;23.80;96.20
63802;DHT22;49949;43.060;25.624;2023-08-06T01:17:30;23.70;97.00
63802;DHT22;49949;43.060;25.624;2023-08-06T01:19:57;23.70;98.30
63802;DHT22;49949;43.060;25.624;2023-08-06T01:22:22;23.60;96.30
63802;DHT22;49949;43.060;25.624;2023-08-06T01:24:50;23.60;95.30
63802;DHT22;49949;43.060;25.624;2023-08-06T01:30:12;23.50;95.50
63802;DHT22;49949;43.060;25.624;2023-08-06T01:32:43;23.50;95.50
63802;DHT22;49949;43.060;25.624;2023-08-06T01:35:11;23.50;95.70
63802;DHT22;49949;43.060;25.624;2023-08-06T01:37:37;23.40;95.60
63802;DHT22;49949;43.060;25.624;2023-08-06T01:40:11;23.40;96.70
63802;DHT22;49949;43.060;25.624;2023-08-06T01:42:40;23.30;96.20
63802;DHT22;49949;43.060;25.624;2023-08-06T01:45:07;23.30;96.10
63802;DHT22;49949;43.060;25.624;2023-08-06T01:47:33;23.20;96.50
63802;DHT22;49949;43.060;25.624;2023-08-06T01:49:59;23.10;97.90
63802;DHT22;49949;43.060;25.624;2023-08-06T01:52:26;23.00;99.00
63802;DHT22;49949;43.060;25.624;2023-08-06T01:54:52;22.90;98.60
63802;DHT22;49949;43.060;25.624;2023-08-06T01:57:17;22.80;99.00
63802;DHT22;49949;43.060;25.624;2023-08-06T01:59:43;22.70;99.90
63802;DHT22;49949;43.060;25.624;2023-08-06T02:02:09;22.60;99.90
63802;DHT22;49949;43.060;25.624;2023-08-06T02:04:34;22.50;99.90
63802;DHT22;49949;43.060;25.624;2023-08-06T02:07:00;22.40;99.90
63802;DHT22;49949;43.060;25.624;2023-08-06T02:09:26;22.30;99.90
63802;DHT22;49949;43.060;25.624;2023-08-06T02:11:52;22.20;99.90
63802;DHT22;49949;43.060;25.624;2023-08-06T02:14:17;22.10;99.90
63802;DHT22;49949;43.060;25.624;2023-08-06T02:16:43;22.00;99.90
63802;DHT22;49949;43.060;25.624;2023-08-06T02:19:08;22.00;99.90
63802;DHT22;49949;43.060;25.624;2023-08-06T02:21:34;21.90;99.90
63802;DHT22;49949;43.060;25.624;2023-08-06T02:24:00;21.90;99.90
63802;DHT22;49949;43.060;25.624;2023-08-06T02:26:26;21.80;99.90
63802;DHT22;49949;43.060;25.624;2023-08-06T02:28:52;21.80;99.90
63802;DHT22;49949;43.060;25.624;2023-08-06T02:31:17;21.80;99.90
63802;DHT22;49949;43.060;25.624;2023-08-06T02:33:43;21.80;99.90
63802;DHT22;49949;43.060;25.624;2023-08-06T02:36:09;21.70;99.90
63802;DHT22;49949;43.060;25.624;2023-08-06T02:38:34;21.60;99.90
63802;DHT22;49949;43.060;25.624;2023-08-06T02:41:04;21.50;99.90
63802;DHT22;49949;43.060;25.624;2023-08-06T02:43:30;21.50;99.90
63802;DHT22;49949;43.060;25.624;2023-08-06T02:45:59;21.50;99.90
63802;DHT22;49949;43.060;25.624;2023-08-06T02:48:25;21.40;99.90
63802;DHT22;49949;43.060;25.624;2023-08-06T02:50:51;21.30;99.90
63802;DHT22;49949;43.060;25.624;2023-08-06T02:53:16;21.20;99.90
63802;DHT22;49949;43.060;25.624;2023-08-06T02:55:46;21.10;99.90
63802;DHT22;49949;43.060;25.624;2023-08-06T02:58:15;21.00;99.90
63802;DHT22;49949;43.060;25.624;2023-08-06T03:00:41;21.00;99.90
63802;DHT22;49949;43.060;25.624;2023-08-06T03:03:08;20.90;99.90
63802;DHT22;49949;43.060;25.624;2023-08-06T03:05:34;21.00;99.90
63802;DHT22;49949;43.060;25.624;2023-08-06T03:08:00;21.00;99.90
63802;DHT22;49949;43.060;25.624;2023-08-06T03:10:25;21.00;99.90
63802;DHT22;49949;43.060;25.624;2023-08-06T03:12:51;21.00;99.90
63802;DHT22;49949;43.060;25.624;2023-08-06T03:15:17;21.10;99.90
63802;DHT22;49949;43.060;25.624;2023-08-06T03:17:43;21.10;99.90
63802;DHT22;49949;43.060;25.624;2023-08-06T03:20:09;21.10;99.90
63802;DHT22;49949;43.060;25.624;2023-08-06T03:22:35;21.00;99.90
63802;DHT22;49949;43.060;25.624;2023-08-06T03:25:01;21.00;99.90
63802;DHT22;49949;43.060;25.624;2023-08-06T03:27:27;21.00;99.90
63802;DHT22;49949;43.060;25.624;2023-08-06T03:29:53;21.00;99.90
63802;DHT22;49949;43.060;25.624;2023-08-06T03:32:19;21.00;99.90
63802;DHT22;49949;43.060;25.624;2023-08-06T03:34:44;21.00;99.90
63802;DHT22;49949;43.060;25.624;2023-08-06T03:37:10;21.00;99.90
63802;DHT22;49949;43.060;25.624;2023-08-06T03:39:36;21.10;99.90
63802;DHT22;49949;43.060;25.624;2023-08-06T03:42:01;21.10;99.90
63802;DHT22;49949;43.060;25.624;2023-08-06T03:44:27;21.10;99.90
63802;DHT22;49949;43.060;25.624;2023-08-06T03:46:53;21.20;99.90
63802;DHT22;49949;43.060;25.624;2023-08-06T03:49:19;21.30;99.90
63802;DHT22;49949;43.060;25.624;2023-08-06T03:51:45;21.40;99.90
63802;DHT22;49949;43.060;25.624;2023-08-06T03:54:11;21.50;99.90
63802;DHT22;49949;43.060;25.624;2023-08-06T03:56:37;21.60;99.90
63802;DHT22;49949;43.060;25.624;2023-08-06T03:59:02;21.90;99.90
63802;DHT22;49949;43.060;25.624;2023-08-06T04:01:28;22.00;99.90
63802;DHT22;49949;43.060;25.624;2023-08-06T04:03:54;22.20;99.90
63802;DHT22;49949;43.060;25.624;2023-08-06T04:06:19;22.50;99.90
63802;DHT22;49949;43.060;25.624;2023-08-06T04:08:45;22.80;99.90
63802;DHT22;49949;43.060;25.624;2023-08-06T04:11:11;23.10;99.90
63802;DHT22;49949;43.060;25.624;2023-08-06T04:13:38;23.50;99.90
63802;DHT22;49949;43.060;25.624;2023-08-06T04:16:04;24.00;98.60
63802;DHT22;49949;43.060;25.624;2023-08-06T04:18:30;24.40;96.20
63802;DHT22;49949;43.060;25.624;2023-08-06T04:20:56;24.80;94.30
63802;DHT22;49949;43.060;25.624;2023-08-06T04:23:23;25.10;93.90
63802;DHT22;49949;43.060;25.624;2023-08-06T04:25:49;25.40;92.80
63802;DHT22;49949;43.060;25.624;2023-08-06T04:28:15;25.70;90.90
63802;DHT22;49949;43.060;25.624;2023-08-06T04:30:40;25.80;90.30
63802;DHT22;49949;43.060;25.624;2023-08-06T04:33:06;26.00;89.90
63802;DHT22;49949;43.060;25.624;2023-08-06T04:35:32;26.10;88.80
63802;DHT22;49949;43.060;25.624;2023-08-06T04:37:57;26.00;88.60
63802;DHT22;49949;43.060;25.624;2023-08-06T04:40:23;26.00;89.00
63802;DHT22;49949;43.060;25.624;2023-08-06T04:42:49;25.80;89.40
63802;DHT22;49949;43.060;25.624;2023-08-06T04:45:15;25.80;88.80
63802;DHT22;49949;43.060;25.624;2023-08-06T04:47:40;26.10;88.10
63802;DHT22;49949;43.060;25.624;2023-08-06T04:50:06;26.50;85.80
63802;DHT22;49949;43.060;25.624;2023-08-06T04:52:32;26.80;82.70
63802;DHT22;49949;43.060;25.624;2023-08-06T04:54:58;26.70;83.10
63802;DHT22;49949;43.060;25.624;2023-08-06T04:57:24;26.50;83.30
63802;DHT22;49949;43.060;25.624;2023-08-06T04:59:49;26.50;83.30
63802;DHT22;49949;43.060;25.624;2023-08-06T05:02:15;26.40;82.70
63802;DHT22;49949;43.060;25.624;2023-08-06T05:04:41;26.30;83.20
63802;DHT22;49949;43.060;25.624;2023-08-06T05:07:07;26.30;83.70
63802;DHT22;49949;43.060;25.624;2023-08-06T05:09:32;26.30;84.50
63802;DHT22;49949;43.060;25.624;2023-08-06T05:12:01;26.50;84.40
63802;DHT22;49949;43.060;25.624;2023-08-06T05:14:26;27.10;81.10
63802;DHT22;49949;43.060;25.624;2023-08-06T05:16:52;27.10;80.10
63802;DHT22;49949;43.060;25.624;2023-08-06T05:19:18;27.40;79.00
63802;DHT22;49949;43.060;25.624;2023-08-06T05:21:43;27.50;79.70
63802;DHT22;49949;43.060;25.624;2023-08-06T05:24:09;27.80;77.90
63802;DHT22;49949;43.060;25.624;2023-08-06T05:26:35;28.10;75.60
63802;DHT22;49949;43.060;25.624;2023-08-06T05:29:01;28.30;75.80
63802;DHT22;49949;43.060;25.624;2023-08-06T05:31:26;28.40;73.20
63802;DHT22;49949;43.060;25.624;2023-08-06T05:33:54;28.50;72.80
63802;DHT22;49949;43.060;25.624;2023-08-06T05:36:20;28.40;73.10
63802;DHT22;49949;43.060;25.624;2023-08-06T05:38:47;28.30;74.00
63802;DHT22;49949;43.060;25.624;2023-08-06T05:41:12;28.50;74.20
63802;DHT22;49949;43.060;25.624;2023-08-06T05:43:38;28.70;71.90
63802;DHT22;49949;43.060;25.624;2023-08-06T05:46:04;28.80;72.50
63802;DHT22;49949;43.060;25.624;2023-08-06T05:48:29;28.90;72.30
63802;DHT22;49949;43.060;25.624;2023-08-06T05:50:55;28.90;72.00
63802;DHT22;49949;43.060;25.624;2023-08-06T05:53:21;29.00;72.00
63802;DHT22;49949;43.060;25.624;2023-08-06T05:55:47;29.00;71.80
63802;DHT22;49949;43.060;25.624;2023-08-06T05:58:13;28.90;71.30
63802;DHT22;49949;43.060;25.624;2023-08-06T06:00:39;28.60;72.60
63802;DHT22;49949;43.060;25.624;2023-08-06T06:03:04;28.40;73.70
63802;DHT22;49949;43.060;25.624;2023-08-06T06:05:30;28.10;74.30
63802;DHT22;49949;43.060;25.624;2023-08-06T06:07:56;28.20;75.10
63802;DHT22;49949;43.060;25.624;2023-08-06T06:10:22;28.20;75.20
63802;DHT22;49949;43.060;25.624;2023-08-06T06:12:47;28.10;75.10
63802;DHT22;49949;43.060;25.624;2023-08-06T06:15:13;28.10;75.30
63802;DHT22;49949;43.060;25.624;2023-08-06T06:17:39;28.00;75.40
63802;DHT22;49949;43.060;25.624;2023-08-06T06:20:05;28.00;75.50
63802;DHT22;49949;43.060;25.624;2023-08-06T06:22:31;28.00;75.10
63802;DHT22;49949;43.060;25.624;2023-08-06T06:24:57;28.00;76.50
63802;DHT22;49949;43.060;25.624;2023-08-06T06:27:22;28.20;76.40
63802;DHT22;49949;43.060;25.624;2023-08-06T06:29:48;28.30;74.90
63802;DHT22;49949;43.060;25.624;2023-08-06T06:32:14;28.00;75.10
63802;DHT22;49949;43.060;25.624;2023-08-06T06:34:39;27.80;75.80
63802;DHT22;49949;43.060;25.624;2023-08-06T06:37:05;27.70;76.20
63802;DHT22;49949;43.060;25.624;2023-08-06T06:39:31;27.50;76.30
63802;DHT22;49949;43.060;25.624;2023-08-06T06:41:56;27.50;76.70
63802;DHT22;49949;43.060;25.624;2023-08-06T06:44:22;27.50;77.50
63802;DHT22;49949;43.060;25.624;2023-08-06T06:46:48;27.50;77.00
63802;DHT22;49949;43.060;25.624;2023-08-06T06:49:13;27.80;76.20
63802;DHT22;49949;43.060;25.624;2023-08-06T06:51:39;28.00;75.30
63802;DHT22;49949;43.060;25.624;2023-08-06T06:54:05;28.00;74.90
63802;DHT22;49949;43.060;25.624;2023-08-06T06:56:31;27.80;74.60
63802;DHT22;49949;43.060;25.624;2023-08-06T06:58:56;27.70;75.30
63802;DHT22;49949;43.060;25.624;2023-08-06T07:01:22;27.60;76.20
63802;DHT22;49949;43.060;25.624;2023-08-06T07:03:48;27.50;75.90
63802;DHT22;49949;43.060;25.624;2023-08-06T07:06:13;27.40;76.70
63802;DHT22;49949;43.060;25.624;2023-08-06T07:08:41;27.40;77.50
63802;DHT22;49949;43.060;25.624;2023-08-06T07:11:07;27.50;76.60
63802;DHT22;49949;43.060;25.624;2023-08-06T07:13:35;27.60;76.40
63802;DHT22;49949;43.060;25.624;2023-08-06T07:16:01;27.50;75.80
63802;DHT22;49949;43.060;25.624;2023-08-06T07:18:27;27.50;76.70
63802;DHT22;49949;43.060;25.624;2023-08-06T07:20:54;27.50;76.60
63802;DHT22;49949;43.060;25.624;2023-08-06T07:23:22;27.60;76.70
63802;DHT22;49949;43.060;25.624;2023-08-06T07:25:47;27.60;76.90
63802;DHT22;49949;43.060;25.624;2023-08-06T07:28:14;27.60;77.70
63802;DHT22;49949;43.060;25.624;2023-08-06T07:30:41;27.50;78.10
63802;DHT22;49949;43.060;25.624;2023-08-06T07:33:07;27.50;78.40
63802;DHT22;49949;43.060;25.624;2023-08-06T07:35:33;27.40;79.70
63802;DHT22;49949;43.060;25.624;2023-08-06T07:37:59;27.50;79.40
63802;DHT22;49949;43.060;25.624;2023-08-06T07:40:26;27.50;79.30
63802;DHT22;49949;43.060;25.624;2023-08-06T07:42:53;27.50;79.50
63802;DHT22;49949;43.060;25.624;2023-08-06T07:45:18;27.40;79.70
63802;DHT22;49949;43.060;25.624;2023-08-06T07:47:44;27.30;80.20
63802;DHT22;49949;43.060;25.624;2023-08-06T07:50:10;27.20;80.40
63802;DHT22;49949;43.060;25.624;2023-08-06T07:52:36;27.20;81.00
63802;DHT22;49949;43.060;25.624;2023-08-06T07:55:02;27.00;82.00
63802;DHT22;49949;43.060;25.624;2023-08-06T07:57:31;26.90;82.30
63802;DHT22;49949;43.060;25.624;2023-08-06T07:59:58;26.70;83.00
63802;DHT22;49949;43.060;25.624;2023-08-06T08:02:24;26.70;83.50
63802;DHT22;49949;43.060;25.624;2023-08-06T08:04:50;26.60;83.90
63802;DHT22;49949;43.060;25.624;2023-08-06T08:07:15;26.50;84.10
63802;DHT22;49949;43.060;25.624;2023-08-06T08:09:41;26.40;84.20
63802;DHT22;49949;43.060;25.624;2023-08-06T08:12:07;26.30;84.40
63802;DHT22;49949;43.060;25.624;2023-08-06T08:14:33;26.20;86.40
63802;DHT22;49949;43.060;25.624;2023-08-06T08:17:02;26.10;88.00
63802;DHT22;49949;43.060;25.624;2023-08-06T08:19:28;26.10;86.80
63802;DHT22;49949;43.060;25.624;2023-08-06T08:21:54;26.10;87.60
63802;DHT22;49949;43.060;25.624;2023-08-06T08:24:20;26.00;87.40
63802;DHT22;49949;43.060;25.624;2023-08-06T08:26:49;26.00;88.10
63802;DHT22;49949;43.060;25.624;2023-08-06T08:29:15;25.80;92.80
63802;DHT22;49949;43.060;25.624;2023-08-06T08:31:41;25.60;94.80
63802;DHT22;49949;43.060;25.624;2023-08-06T08:34:06;25.30;96.60
63802;DHT22;49949;43.060;25.624;2023-08-06T08:36:32;24.90;99.40
63802;DHT22;49949;43.060;25.624;2023-08-06T08:38:58;24.50;99.90
63802;DHT22;49949;43.060;25.624;2023-08-06T08:41:23;24.40;99.90
63802;DHT22;49949;43.060;25.624;2023-08-06T08:43:50;24.20;99.90
63802;DHT22;49949;43.060;25.624;2023-08-06T08:46:19;24.10;99.90
63802;DHT22;49949;43.060;25.624;2023-08-06T08:48:45;24.10;99.90
63802;DHT22;49949;43.060;25.624;2023-08-06T08:51:12;24.00;99.90
63802;DHT22;49949;43.060;25.624;2023-08-06T08:53:39;24.00;99.90
63802;DHT22;49949;43.060;25.624;2023-08-06T08:56:05;24.10;99.90
63802;DHT22;49949;43.060;25.624;2023-08-06T08:58:32;24.00;99.90
63802;DHT22;49949;43.060;25.624;2023-08-06T09:00:58;23.90;99.90
63802;DHT22;49949;43.060;25.624;2023-08-06T09:03:23;23.80;99.90
63802;DHT22;49949;43.060;25.624;2023-08-06T09:05:53;23.70;99.90
63802;DHT22;49949;43.060;25.624;2023-08-06T09:08:23;23.70;99.90
63802;DHT22;49949;43.060;25.624;2023-08-06T09:10:50;23.70;99.90
63802;DHT22;49949;43.060;25.624;2023-08-06T09:13:17;23.80;99.90
63802;DHT22;49949;43.060;25.624;2023-08-06T09:15:44;23.80;99.90
63802;DHT22;49949;43.060;25.624;2023-08-06T09:18:11;23.90;99.90
63802;DHT22;49949;43.060;25.624;2023-08-06T09:20:39;24.00;99.90
63802;DHT22;49949;43.060;25.624;2023-08-06T09:23:09;24.10;99.90
63802;DHT22;49949;43.060;25.624;2023-08-06T09:25:38;24.30;99.90
63802;DHT22;49949;43.060;25.624;2023-08-06T09:28:05;24.60;99.90
63802;DHT22;49949;43.060;25.624;2023-08-06T09:30:37;24.90;99.90
63802;DHT22;49949;43.060;25.624;2023-08-06T09:33:08;25.40;99.90
63802;DHT22;49949;43.060;25.624;2023-08-06T09:35:35;25.80;99.90
63802;DHT22;49949;43.060;25.624;2023-08-06T09:38:09;25.80;99.50
63802;DHT22;49949;43.060;25.624;2023-08-06T09:40:36;25.70;99.50
63802;DHT22;49949;43.060;25.624;2023-08-06T09:43:02;25.50;99.90
63802;DHT22;49949;43.060;25.624;2023-08-06T09:45:33;25.20;99.90
63802;DHT22;49949;43.060;25.624;2023-08-06T09:48:01;25.10;99.90
63802;DHT22;49949;43.060;25.624;2023-08-06T09:50:32;25.10;99.90
63802;DHT22;49949;43.060;25.624;2023-08-06T09:52:59;25.20;99.90
63802;DHT22;49949;43.060;25.624;2023-08-06T09:55:26;25.50;99.90
63802;DHT22;49949;43.060;25.624;2023-08-06T09:57:52;25.70;99.50
63802;DHT22;49949;43.060;25.624;2023-08-06T10:00:18;26.10;97.40
63802;DHT22;49949;43.060;25.624;2023-08-06T10:02:45;26.10;97.30
63802;DHT22;49949;43.060;25.624;2023-08-06T10:05:11;25.90;96.70
63802;DHT22;49949;43.060;25.624;2023-08-06T10:07:37;26.00;96.50
63802;DHT22;49949;43.060;25.624;2023-08-06T10:10:05;25.80;97.70
63802;DHT22;49949;43.060;25.624;2023-08-06T10:12:39;25.50;97.20
63802;DHT22;49949;43.060;25.624;2023-08-06T10:15:09;25.20;98.00
63802;DHT22;49949;43.060;25.624;2023-08-06T10:17:37;24.70;99.90
63802;DHT22;49949;43.060;25.624;2023-08-06T10:20:08;24.60;99.90
63802;DHT22;49949;43.060;25.624;2023-08-06T10:22:34;24.50;99.90
63802;DHT22;49949;43.060;25.624;2023-08-06T10:25:01;24.40;99.90
63802;DHT22;49949;43.060;25.624;2023-08-06T10:27:34;24.10;99.90
63802;DHT22;49949;43.060;25.624;2023-08-06T10:30:23;24.10;99.90
63802;DHT22;49949;43.060;25.624;2023-08-06T10:33:00;24.00;99.90
63802;DHT22;49949;43.060;25.624;2023-08-06T10:35:42;24.10;99.90
63802;DHT22;49949;43.060;25.624;2023-08-06T10:38:15;24.40;99.90
63802;DHT22;49949;43.060;25.624;2023-08-06T10:41:15;24.40;99.90
63802;DHT22;49949;43.060;25.624;2023-08-06T10:43:36;24.30;99.90
63802;DHT22;49949;43.060;25.624;2023-08-06T10:46:21;24.30;99.90
63802;DHT22;49949;43.060;25.624;2023-08-06T10:48:47;24.10;99.90
63802;DHT22;49949;43.060;25.624;2023-08-06T10:51:13;24.10;99.90
63802;DHT22;49949;43.060;25.624;2023-08-06T10:53:45;24.00;99.90
63802;DHT22;49949;43.060;25.624;2023-08-06T10:58:43;23.90;99.90
63802;DHT22;49949;43.060;25.624;2023-08-06T11:01:09;23.80;99.90
63802;DHT22;49949;43.060;25.624;2023-08-06T11:03:36;23.70;99.90
63802;DHT22;49949;43.060;25.624;2023-08-06T11:06:02;23.60;99.90
63802;DHT22;49949;43.060;25.624;2023-08-06T11:08:32;23.30;99.90
63802;DHT22;49949;43.060;25.624;2023-08-06T11:13:34;22.20;99.90
63802;DHT22;49949;43.060;25.624;2023-08-06T11:16:00;21.80;99.90
63802;DHT22;49949;43.060;25.624;2023-08-06T11:18:26;21.50;99.90
63802;DHT22;49949;43.060;25.624;2023-08-06T11:20:51;21.10;99.90
63802;DHT22;49949;43.060;25.624;2023-08-06T11:23:18;21.00;99.90
63802;DHT22;49949;43.060;25.624;2023-08-06T11:25:44;20.70;99.90
63802;DHT22;49949;43.060;25.624;2023-08-06T11:28:11;20.50;99.90
63802;DHT22;49949;43.060;25.624;2023-08-06T11:30:38;20.30;99.90
63802;DHT22;49949;43.060;25.624;2023-08-06T11:33:07;20.30;99.90
63802;DHT22;49949;43.060;25.624;2023-08-06T11:35:35;20.30;99.90
63802;DHT22;49949;43.060;25.624;2023-08-06T11:38:01;20.30;99.90
63802;DHT22;49949;43.060;25.624;2023-08-06T11:40:27;20.20;99.90
63802;DHT22;49949;43.060;25.624;2023-08-06T11:42:53;20.30;99.90
63802;DHT22;49949;43.060;25.624;2023-08-06T11:45:22;20.20;99.90
63802;DHT22;49949;43.060;25.624;2023-08-06T11:47:52;20.20;99.90
63802;DHT22;49949;43.060;25.624;2023-08-06T11:50:27;20.20;99.90
63802;DHT22;49949;43.060;25.624;2023-08-06T11:52:58;20.20;99.90
63802;DHT22;49949;43.060;25.624;2023-08-06T11:55:26;20.20;99.90
63802;DHT22;49949;43.060;25.624;2023-08-06T11:57:54;20.30;99.90
63802;DHT22;49949;43.060;25.624;2023-08-06T12:00:22;20.30;99.90
63802;DHT22;49949;43.060;25.624;2023-08-06T12:02:49;20.30;99.90
63802;DHT22;49949;43.060;25.624;2023-08-06T12:05:19;20.40;99.90
63802;DHT22;49949;43.060;25.624;2023-08-06T12:07:53;20.40;99.90
63802;DHT22;49949;43.060;25.624;2023-08-06T12:10:19;20.40;99.90
63802;DHT22;49949;43.060;25.624;2023-08-06T12:12:46;20.40;99.90
63802;DHT22;49949;43.060;25.624;2023-08-06T12:15:12;20.50;99.90
63802;DHT22;49949;43.060;25.624;2023-08-06T12:17:38;20.60;99.90
63802;DHT22;49949;43.060;25.624;2023-08-06T12:20:05;20.70;99.90
63802;DHT22;49949;43.060;25.624;2023-08-06T12:22:31;20.80;99.90
63802;DHT22;49949;43.060;25.624;2023-08-06T12:25:01;21.00;99.90
63802;DHT22;49949;43.060;25.624;2023-08-06T12:27:27;21.00;99.90
63802;DHT22;49949;43.060;25.624;2023-08-06T12:29:53;21.00;99.90
63802;DHT22;49949;43.060;25.624;2023-08-06T12:32:19;21.00;99.90
63802;DHT22;49949;43.060;25.624;2023-08-06T12:34:45;21.20;99.90
63802;DHT22;49949;43.060;25.624;2023-08-06T12:37:10;21.60;99.90
63802;DHT22;49949;43.060;25.624;2023-08-06T12:39:37;21.80;99.90
63802;DHT22;49949;43.060;25.624;2023-08-06T12:42:04;22.10;99.90
63802;DHT22;49949;43.060;25.624;2023-08-06T12:44:30;22.10;99.90
63802;DHT22;49949;43.060;25.624;2023-08-06T12:46:57;22.30;99.90
63802;DHT22;49949;43.060;25.624;2023-08-06T12:49:25;22.70;99.90
63802;DHT22;49949;43.060;25.624;2023-08-06T12:51:52;22.90;99.90
63802;DHT22;49949;43.060;25.624;2023-08-06T12:54:19;23.20;99.90
63802;DHT22;49949;43.060;25.624;2023-08-06T12:56:45;23.40;99.90
63802;DHT22;49949;43.060;25.624;2023-08-06T12:59:13;23.50;99.90
63802;DHT22;49949;43.060;25.624;2023-08-06T13:01:39;23.60;99.90
63802;DHT22;49949;43.060;25.624;2023-08-06T13:04:04;23.70;99.90
63802;DHT22;49949;43.060;25.624;2023-08-06T13:06:30;23.70;99.90
63802;DHT22;49949;43.060;25.624;2023-08-06T13:08:57;23.70;99.90
63802;DHT22;49949;43.060;25.624;2023-08-06T13:11:23;23.70;99.90
63802;DHT22;49949;43.060;25.624;2023-08-06T13:13:48;23.70;99.90
63802;DHT22;49949;43.060;25.624;2023-08-06T13:16:14;23.80;99.90
63802;DHT22;49949;43.060;25.624;2023-08-06T13:18:40;24.00;99.90
63802;DHT22;49949;43.060;25.624;2023-08-06T13:21:06;24.10;99.90
63802;DHT22;49949;43.060;25.624;2023-08-06T13:23:31;24.30;99.90
63802;DHT22;49949;43.060;25.624;2023-08-06T13:25:57;24.40;99.90
63802;DHT22;49949;43.060;25.624;2023-08-06T13:28:24;24.50;99.90
63802;DHT22;49949;43.060;25.624;2023-08-06T13:30:49;24.60;99.90
63802;DHT22;49949;43.060;25.624;2023-08-06T13:33:15;24.70;99.90
63802;DHT22;49949;43.060;25.624;2023-08-06T13:35:41;24.70;99.90
63802;DHT22;49949;43.060;25.624;2023-08-06T13:38:06;24.80;99.90
63802;DHT22;49949;43.060;25.624;2023-08-06T13:40:33;25.00;99.90
63802;DHT22;49949;43.060;25.624;2023-08-06T13:42:59;25.20;99.90
63802;DHT22;49949;43.060;25.624;2023-08-06T13:45:25;25.40;99.90
63802;DHT22;49949;43.060;25.624;2023-08-06T13:47:51;25.30;99.90
63802;DHT22;49949;43.060;25.624;2023-08-06T13:50:17;25.30;99.90
63802;DHT22;49949;43.060;25.624;2023-08-06T13:52:42;25.30;99.90
63802;DHT22;49949;43.060;25.624;2023-08-06T13:55:08;25.30;99.90
63802;DHT22;49949;43.060;25.624;2023-08-06T13:57:34;25.40;99.90
63802;DHT22;49949;43.060;25.624;2023-08-06T14:00:01;25.50;99.90
63802;DHT22;49949;43.060;25.624;2023-08-06T14:02:27;25.60;99.90
63802;DHT22;49949;43.060;25.624;2023-08-06T14:04:53;25.70;99.90
63802;DHT22;49949;43.060;25.624;2023-08-06T14:07:19;25.80;99.90
63802;DHT22;49949;43.060;25.624;2023-08-06T14:09:45;25.90;99.90
63802;DHT22;49949;43.060;25.624;2023-08-06T14:12:12;26.00;99.90
63802;DHT22;49949;43.060;25.624;2023-08-06T14:14:38;26.10;99.90
63802;DHT22;49949;43.060;25.624;2023-08-06T14:17:04;26.10;99.90
63802;DHT22;49949;43.060;25.624;2023-08-06T14:19:30;26.30;99.90
63802;DHT22;49949;43.060;25.624;2023-08-06T14:21:55;26.30;99.90
63802;DHT22;49949;43.060;25.624;2023-08-06T14:24:21;26.20;99.90
63802;DHT22;49949;43.060;25.624;2023-08-06T14:26:47;26.10;99.90
63802;DHT22;49949;43.060;25.624;2023-08-06T14:29:13;26.10;99.90
63802;DHT22;49949;43.060;25.624;2023-08-06T14:31:39;26.10;99.90
63802;DHT22;49949;43.060;25.624;2023-08-06T14:34:06;26.30;99.90
63802;DHT22;49949;43.060;25.624;2023-08-06T14:36:32;26.40;99.90
63802;DHT22;49949;43.060;25.624;2023-08-06T14:38:57;26.60;99.90
63802;DHT22;49949;43.060;25.624;2023-08-06T14:41:23;26.80;99.90
63802;DHT22;49949;43.060;25.624;2023-08-06T14:43:50;27.00;99.90
63802;DHT22;49949;43.060;25.624;2023-08-06T14:46:15;27.20;99.90
63802;DHT22;49949;43.060;25.624;2023-08-06T14:48:41;27.30;99.90
63802;DHT22;49949;43.060;25.624;2023-08-06T14:51:08;27.30;99.90
63802;DHT22;49949;43.060;25.624;2023-08-06T14:53:34;27.30;99.90
63802;DHT22;49949;43.060;25.624;2023-08-06T14:55:59;27.20;99.90
63802;DHT22;49949;43.060;25.624;2023-08-06T14:58:25;27.20;99.90
63802;DHT22;49949;43.060;25.624;2023-08-06T15:00:51;27.20;99.90
63802;DHT22;49949;43.060;25.624;2023-08-06T15:03:16;27.30;99.90
63802;DHT22;49949;43.060;25.624;2023-08-06T15:05:49;27.30;99.90
63802;DHT22;49949;43.060;25.624;2023-08-06T15:08:15;27.30;99.90
63802;DHT22;49949;43.060;25.624;2023-08-06T15:10:41;27.40;99.90
63802;DHT22;49949;43.060;25.624;2023-08-06T15:13:06;27.60;99.90
63802;DHT22;49949;43.060;25.624;2023-08-06T15:15:32;27.80;99.90
63802;DHT22;49949;43.060;25.624;2023-08-06T15:17:58;27.80;99.90
63802;DHT22;49949;43.060;25.624;2023-08-06T15:20:24;27.80;99.90
63802;DHT22;49949;43.060;25.624;2023-08-06T15:22:50;27.70;99.90
63802;DHT22;49949;43.060;25.624;2023-08-06T15:25:16;27.60;99.90
63802;DHT22;49949;43.060;25.624;2023-08-06T15:27:42;27.60;99.90